Time;durP1;ratioP1;P1;durP2;ratioP2;P2;SDS_P1;SDS_P2;PMS_P1;PMS_P2;Temp;Humidity;BMP_temperature;BMP_pressure;BME280_temperature;BME280_humidity;BME280_pressure;Samples;Min_cycle;Max_cycle;Signal;HPM_P1;HPM_P2
2022/11/19 00:00:23;;;;;;;30.40;13.25;;;;;;;-1.30;100.00;98213.48;4262117;81;21048;-81
2022/11/19 00:06:27;;;;;;;33.08;14.78;;;;;;;-1.32;100.00;98226.45;4289256;81;21047;-81
2022/11/19 00:18:48;;;;;;;31.25;13.40;;;;;;;-1.45;100.00;98223.91;4298561;81;21610;-81
2022/11/19 00:24:49;;;;;;;32.70;14.18;;;;;;;-1.51;100.00;98220.61;4298687;81;21070;-82
2022/11/19 00:30:50;;;;;;;31.13;14.47;;;;;;;-1.53;100.00;98228.75;4278677;81;21140;-81
2022/11/19 00:36:51;;;;;;;29.90;14.90;;;;;;;-1.49;100.00;98242.56;4182614;83;21994;-82
2022/11/19 00:49:12;;;;;;;41.83;16.67;;;;;;;-1.46;100.00;98250.53;4278770;81;21050;-81
2022/11/19 00:55:13;;;;;;;31.13;14.57;;;;;;;-1.50;100.00;98250.36;4259056;82;21001;-81
2022/11/19 01:01:17;;;;;;;23.50;12.65;;;;;;;-1.55;100.00;98244.37;4240141;82;21028;-81
2022/11/19 01:07:19;;;;;;;21.45;12.00;;;;;;;-1.60;100.00;98248.00;4268373;82;21500;-82
2022/11/19 01:13:35;;;;;;;33.83;13.70;;;;;;;-1.53;100.00;98254.24;4257459;82;21099;-81
2022/11/19 01:19:38;;;;;;;25.82;12.25;;;;;;;-1.48;100.00;98264.27;4232834;82;21790;-83
2022/11/19 01:25:39;;;;;;;24.65;13.50;;;;;;;-1.45;100.00;98250.21;4273233;82;21087;-81
2022/11/19 01:31:41;;;;;;;23.45;13.58;;;;;;;-1.37;100.00;98252.66;4250046;81;21102;-83
2022/11/19 01:37:42;;;;;;;26.73;13.70;;;;;;;-1.33;100.00;98256.31;4243414;82;21551;-81
2022/11/19 01:43:49;;;;;;;30.08;13.80;;;;;;;-1.41;100.00;98236.41;4246403;81;21068;-81
2022/11/19 01:49:50;;;;;;;31.03;14.80;;;;;;;-1.41;100.00;98236.41;4261619;82;21046;-81
2022/11/19 01:55:52;;;;;;;34.67;15.30;;;;;;;-1.32;100.00;98268.08;4250050;82;21044;-80
2022/11/19 02:01:54;;;;;;;40.90;15.88;;;;;;;-1.32;100.00;98273.45;4166371;83;21369;-81
2022/11/19 02:07:57;;;;;;;31.95;14.03;;;;;;;-1.33;100.00;98284.50;4189509;82;21129;-81
2022/11/19 02:14:27;;;;;;;20.75;10.95;;;;;;;-1.33;100.00;98284.50;4156955;83;21048;-81
2022/11/19 02:20:49;;;;;;;24.00;11.85;;;;;;;-1.35;100.00;98300.13;4168158;83;22314;-81
2022/11/19 02:27:21;;;;;;;21.70;11.55;;;;;;;-1.31;100.00;98316.64;4261007;81;21039;-82
2022/11/19 02:33:43;;;;;;;19.80;10.72;;;;;;;-1.29;100.00;98319.80;4235764;82;21052;-82
2022/11/19 02:39:52;;;;;;;18.85;10.55;;;;;;;-1.35;100.00;98331.00;4200428;82;21107;-82
2022/11/19 02:46:01;;;;;;;19.50;10.65;;;;;;;-1.36;100.00;98331.55;4250886;82;21036;-81
2022/11/19 02:52:03;;;;;;;22.95;12.80;;;;;;;-1.31;100.00;98338.12;4244772;82;21013;-81
2022/11/19 03:04:28;;;;;;;22.37;12.23;;;;;;;-1.37;100.00;98339.37;4171671;83;21080;-83
2022/11/19 03:04:30;;;;;;;22.67;12.47;;;;;;;-1.41;100.00;98349.71;4194867;83;21037;-81
2022/11/19 03:10:52;;;;;;;22.82;11.65;;;;;;;-1.46;100.00;98361.93;4210104;83;21079;-82
2022/11/19 03:17:11;;;;;;;22.00;12.13;;;;;;;-1.43;100.00;98370.16;4300037;81;21047;-81
2022/11/19 03:23:18;;;;;;;22.58;11.75;;;;;;;-1.36;100.00;98374.50;4263390;82;21503;-81
2022/11/19 03:29:21;;;;;;;19.98;12.37;;;;;;;-1.34;100.00;98370.97;4178449;83;21075;-82
2022/11/19 03:35:46;;;;;;;19.90;11.28;;;;;;;-1.39;100.00;98370.34;4214737;83;21074;-81
2022/11/19 03:41:49;;;;;;;21.02;11.97;;;;;;;-1.39;100.00;98370.34;4215512;83;21009;-81
2022/11/19 03:47:52;;;;;;;22.13;12.00;;;;;;;-1.43;100.00;98376.07;4195838;82;21918;-81
2022/11/19 03:53:56;;;;;;;23.60;12.78;;;;;;;-1.48;100.00;98378.89;4175630;83;21049;-81
2022/11/19 03:59:57;;;;;;;21.93;12.73;;;;;;;-1.49;100.00;98387.52;4141434;83;21031;-81
2022/11/19 04:05:58;;;;;;;30.27;16.07;;;;;;;-1.46;100.00;98397.62;4159716;83;21119;-82
2022/11/19 04:12:00;;;;;;;33.23;16.67;;;;;;;-1.52;100.00;98402.91;4189339;83;21078;-81
2022/11/19 04:18:01;;;;;;;22.87;13.23;;;;;;;-1.58;100.00;98411.40;4265539;82;21011;-81
2022/11/19 04:24:05;;;;;;;21.55;13.00;;;;;;;-1.67;100.00;98425.56;4246641;82;21062;-82
2022/11/19 04:30:08;;;;;;;20.93;12.53;;;;;;;-1.65;100.00;98423.37;4262748;81;21069;-82
2022/11/19 04:36:09;;;;;;;26.00;13.50;;;;;;;-1.63;100.00;98419.81;4273994;81;21182;-81
2022/11/19 04:42:11;;;;;;;29.52;14.78;;;;;;;-1.70;100.00;98423.50;4270241;81;21149;-80
2022/11/19 04:48:12;;;;;;;26.70;13.95;;;;;;;-1.79;100.00;98428.05;4283165;81;21062;-82
2022/11/19 04:54:14;;;;;;;26.45;14.43;;;;;;;-1.82;100.00;98435.34;4282001;81;21040;-81
2022/11/19 05:00:16;;;;;;;37.00;17.85;;;;;;;-1.80;100.00;98447.11;4275826;81;21517;-82
2022/11/19 05:06:18;;;;;;;27.10;13.83;;;;;;;-1.79;100.00;98454.88;4287300;81;21079;-81
2022/11/19 05:12:19;;;;;;;23.50;13.10;;;;;;;-1.76;100.00;98459.63;4262815;82;21678;-82
2022/11/19 05:18:20;;;;;;;22.63;12.90;;;;;;;-1.69;100.00;98459.16;4193894;83;21050;-82
2022/11/19 05:24:21;;;;;;;23.20;12.90;;;;;;;-1.66;100.00;98477.36;4127176;84;21496;-82
2022/11/19 05:30:23;;;;;;;23.13;13.60;;;;;;;-1.62;100.00;98495.76;4125372;84;21034;-82
2022/11/19 05:36:30;;;;;;;29.70;14.03;;;;;;;-1.59;100.00;98511.25;4282219;81;20991;-84
2022/11/19 05:42:32;;;;;;;37.83;16.80;;;;;;;-1.60;100.00;98502.96;4256765;82;21940;-82
2022/11/19 05:48:33;;;;;;;29.00;14.20;;;;;;;-1.64;100.00;98513.52;4272331;81;21064;-82
2022/11/19 05:54:34;;;;;;;38.05;17.82;;;;;;;-1.63;100.00;98521.80;4279607;81;21545;-81
2022/11/19 06:00:35;;;;;;;39.50;16.45;;;;;;;-1.53;100.00;98528.03;4178585;83;21066;-82
2022/11/19 06:06:37;;;;;;;28.80;15.73;;;;;;;-1.49;100.00;98535.70;4235434;82;21610;-82
2022/11/19 06:12:38;;;;;;;31.05;16.12;;;;;;;-1.48;100.00;98554.18;4292085;81;21057;-81
2022/11/19 06:18:39;;;;;;;32.70;15.37;;;;;;;-1.48;100.00;98557.41;4263373;81;21070;-81
2022/11/19 06:24:41;;;;;;;26.63;12.67;;;;;;;-1.49;100.00;98566.56;4238205;81;21012;-81
2022/11/19 06:30:42;;;;;;;22.43;13.47;;;;;;;-1.63;100.00;98570.67;4235906;82;21015;-81
2022/11/19 06:36:44;;;;;;;28.60;15.03;;;;;;;-1.75;100.00;98572.55;4251208;82;21043;-81
2022/11/19 06:42:45;;;;;;;24.07;13.97;;;;;;;-1.78;99.90;98589.80;4235475;82;21075;-81
2022/11/19 06:48:46;;;;;;;28.73;15.18;;;;;;;-1.79;100.00;98607.02;4255925;82;21054;-79
2022/11/19 06:54:49;;;;;;;33.25;17.37;;;;;;;-1.74;100.00;98623.00;4183964;83;21347;-80
2022/11/19 07:00:52;;;;;;;33.17;18.13;;;;;;;-1.67;100.00;98628.73;4173725;83;21645;-84
2022/11/19 07:06:54;;;;;;;33.25;17.75;;;;;;;-1.71;100.00;98631.78;4259645;81;20993;-82
2022/11/19 07:12:55;;;;;;;33.13;17.97;;;;;;;-1.71;100.00;98631.78;4254462;82;21005;-81
2022/11/19 07:18:59;;;;;;;36.27;18.93;;;;;;;-1.69;100.00;98645.13;4250229;82;21073;-81
2022/11/19 07:25:00;;;;;;;32.50;17.75;;;;;;;-1.60;100.00;98649.24;4259486;81;21057;-81
2022/11/19 07:31:07;;;;;;;35.30;19.62;;;;;;;-1.56;100.00;98648.87;4263344;81;21051;-81
2022/11/19 07:37:12;;;;;;;40.33;21.10;;;;;;;-1.51;100.00;98650.09;4229253;82;21055;-80
2022/11/19 07:43:13;;;;;;;46.10;25.08;;;;;;;-1.47;100.00;98659.69;4264024;81;21040;-80
2022/11/19 07:49:15;;;;;;;43.98;23.80;;;;;;;-1.11;100.00;98651.78;4249432;82;21080;-80
2022/11/19 07:55:16;;;;;;;54.55;25.15;;;;;;;-0.30;100.00;98660.61;4254997;82;21094;-82
2022/11/19 08:01:23;;;;;;;41.98;23.30;;;;;;;0.25;100.00;98648.76;4247997;81;21029;-83
2022/11/19 08:07:24;;;;;;;44.20;24.27;;;;;;;0.85;100.00;98668.40;4243729;82;21561;-82
2022/11/19 08:13:30;;;;;;;35.08;19.95;;;;;;;1.27;100.00;98666.71;4253296;81;21056;-83
2022/11/19 08:19:29;;;;;;;41.63;21.23;;;;;;;1.92;100.00;98654.94;4255303;82;21694;-84
2022/11/19 08:25:31;;;;;;;39.70;21.65;;;;;;;1.96;98.84;98657.78;4249160;81;21145;-83
2022/11/19 08:31:32;;;;;;;38.83;21.60;;;;;;;1.32;96.95;98664.64;4273370;81;21003;-83
2022/11/19 08:37:34;;;;;;;39.58;22.13;;;;;;;0.90;96.82;98670.94;4243634;82;21062;-83
2022/11/19 08:43:35;;;;;;;36.50;20.15;;;;;;;0.41;96.20;98673.34;4268265;82;21128;-83
2022/11/19 08:49:36;;;;;;;36.17;20.88;;;;;;;0.03;96.41;98680.41;4267682;81;21020;-84
2022/11/19 08:55:38;;;;;;;34.25;19.82;;;;;;;-0.24;96.43;98684.13;4245611;82;21519;-83
2022/11/19 09:01:39;;;;;;;44.05;23.38;;;;;;;-0.40;96.73;98695.06;4268760;81;21059;-84
2022/11/19 09:07:40;;;;;;;42.90;21.95;;;;;;;-0.42;97.85;98702.64;4247642;82;21011;-83
2022/11/19 09:13:42;;;;;;;41.80;21.40;;;;;;;-0.42;97.71;98697.27;4272144;81;20985;-83
2022/11/19 09:19:44;;;;;;;39.78;21.35;;;;;;;-0.18;98.58;98700.37;4276502;81;21036;-83
2022/11/19 09:26:02;;;;;;;21.52;12.58;;;;;;;0.93;100.00;98696.44;4266514;82;22028;-84
2022/11/19 09:32:05;;;;;;;27.90;15.30;;;;;;;1.81;97.35;98702.86;4256124;81;21054;-85
2022/11/19 09:38:07;;;;;;;25.02;14.00;;;;;;;2.33;96.24;98706.32;4234602;81;21177;-85
2022/11/19 09:44:49;;;;;;;24.82;13.62;;;;;;;2.77;93.96;98707.00;4251456;82;21010;-85
2022/11/19 09:51:10;;;;;;;19.35;10.35;;;;;;;2.99;93.58;98708.00;4250043;82;21044;-86
2022/11/19 09:57:35;;;;;;;17.32;9.60;;;;;;;3.45;93.07;98713.68;4257251;82;21089;-84
2022/11/19 10:03:40;;;;;;;15.20;9.40;;;;;;;3.62;93.61;98716.78;4268150;82;21595;-83
2022/11/19 10:10:33;;;;;;;14.53;8.60;;;;;;;3.58;91.68;98713.14;4260330;81;21133;-83
2022/11/19 10:17:03;;;;;;;16.42;9.58;;;;;;;3.48;90.92;98722.48;4253121;81;21028;-85
2022/11/19 10:23:14;;;;;;;17.30;9.88;;;;;;;3.23;90.40;98706.53;4255596;82;21004;-85
2022/11/19 10:29:24;;;;;;;17.40;9.33;;;;;;;3.54;90.10;98708.19;4270987;81;21455;-84
2022/11/19 10:35:48;;;;;;;;;;;;;;;;;;;;;
2022/11/19 10:42:00;;;;;;;14.25;8.83;;;;;;;3.53;87.71;98708.74;4295654;81;21619;-86
2022/11/19 10:48:20;;;;;;;16.07;9.60;;;;;;;2.24;87.68;98712.89;4263410;81;21096;-84
2022/11/19 10:54:26;;;;;;;18.73;10.82;;;;;;;2.01;87.04;98708.87;4250265;81;21725;-85
2022/11/19 11:00:28;;;;;;;19.12;11.33;;;;;;;2.08;86.20;98701.06;4228295;82;21119;-85
2022/11/19 11:06:57;;;;;;;25.02;14.38;;;;;;;2.04;85.91;98692.02;4171505;83;21027;-84
2022/11/19 11:19:33;;;;;;;16.73;10.32;;;;;;;1.62;85.77;98700.56;4221175;81;21638;-83
2022/11/19 11:25:35;;;;;;;17.62;10.93;;;;;;;1.28;85.14;98705.52;4277202;81;21009;-83
2022/11/19 11:31:44;;;;;;;17.55;11.53;;;;;;;1.11;85.21;98712.27;4245717;81;21102;-84
2022/11/19 11:37:48;;;;;;;18.65;10.35;;;;;;;1.14;85.97;98713.55;4259801;81;21016;-84
2022/11/19 11:44:01;;;;;;;16.52;10.15;;;;;;;1.04;82.60;98718.71;4180963;83;20994;-83
2022/11/19 11:50:23;;;;;;;21.40;10.82;;;;;;;1.03;84.37;98710.95;4104025;84;20996;-83
2022/11/19 11:56:24;;;;;;;18.02;11.10;;;;;;;1.11;84.47;98719.00;4246816;81;21047;-83
2022/11/19 12:02:33;;;;;;;15.75;9.53;;;;;;;1.16;83.63;98719.42;4249806;82;21063;-84
2022/11/19 12:08:58;;;;;;;74.22;26.07;;;;;;;1.12;83.01;98724.66;4262879;82;21042;-84
2022/11/19 12:15:20;;;;;;;23.42;12.68;;;;;;;1.06;83.88;98728.63;4266387;82;21607;-84
2022/11/19 12:21:54;;;;;;;24.98;13.60;;;;;;;0.77;84.24;98730.36;4249280;82;21036;-84
2022/11/19 12:28:35;;;;;;;23.45;13.25;;;;;;;0.76;84.64;98737.67;4269252;82;21015;-84
2022/11/19 12:34:45;;;;;;;21.17;11.60;;;;;;;0.66;84.06;98727.20;4198447;82;21051;-84
2022/11/19 12:41:01;;;;;;;21.52;12.85;;;;;;;0.60;84.30;98737.90;4115152;84;21110;-84
2022/11/19 12:47:27;;;;;;;24.73;13.60;;;;;;;0.61;84.66;98741.39;4244605;81;21071;-83
2022/11/19 12:54:07;;;;;;;22.07;12.20;;;;;;;0.55;84.11;98747.47;4269024;81;21070;-83
2022/11/19 13:00:22;;;;;;;23.10;12.50;;;;;;;0.49;83.91;98746.59;4235056;82;21288;-84
2022/11/19 13:06:57;;;;;;;24.20;13.13;;;;;;;0.42;84.30;98757.05;4232669;82;21036;-84
2022/11/19 13:13:00;;;;;;;29.60;16.12;;;;;;;0.43;84.41;98759.42;4264493;81;21021;-84
2022/11/19 13:19:15;;;;;;;28.05;14.30;;;;;;;0.34;83.63;98761.31;4241178;82;21032;-84
2022/11/19 13:25:46;;;;;;;28.17;15.13;;;;;;;0.21;84.05;98762.77;4208500;83;21024;-84
2022/11/19 13:31:55;;;;;;;26.10;14.78;;;;;;;0.22;84.24;98761.11;4124710;84;21034;-84
2022/11/19 13:38:25;;;;;;;23.98;14.55;;;;;;;0.24;84.56;98766.17;4136373;83;21008;-83
2022/11/19 13:44:40;;;;;;;28.15;14.95;;;;;;;0.24;83.97;98766.98;4102494;84;21046;-83
2022/11/19 13:50:44;;;;;;;28.32;15.40;;;;;;;0.27;84.06;98773.66;4170852;83;21482;-83
2022/11/19 13:56:48;;;;;;;36.77;18.50;;;;;;;0.01;83.10;98776.25;4163853;83;21080;-83
2022/11/19 14:02:58;;;;;;;32.60;17.42;;;;;;;-0.02;82.82;98783.03;4192915;83;21020;-83
2022/11/19 14:09:29;;;;;;;32.00;17.05;;;;;;;0.07;83.37;98786.31;4208911;83;21018;-83
2022/11/19 14:28:55;;;;;;;30.82;15.55;;;;;;;-0.01;83.73;98779.80;4254788;82;21035;-83
2022/11/19 14:35:06;;;;;;;34.33;17.27;;;;;;;-0.07;83.99;98781.05;4266776;82;21044;-83
2022/11/19 14:41:33;;;;;;;47.80;22.13;;;;;;;-0.23;84.33;98790.08;4240436;82;21000;-83
2022/11/19 14:47:38;;;;;;;35.78;18.80;;;;;;;-0.28;83.90;98790.20;4259307;82;21569;-83
2022/11/19 14:54:02;;;;;;;34.30;17.87;;;;;;;-0.38;83.67;98785.11;4265341;81;22275;-83
2022/11/19 15:00:18;;;;;;;38.70;19.07;;;;;;;-0.46;84.51;98793.92;4263010;82;20973;-83
2022/11/19 15:06:21;;;;;;;33.85;20.50;;;;;;;-0.53;84.88;98800.81;4247018;82;21698;-83
2022/11/19 15:12:31;;;;;;;50.25;24.52;;;;;;;-0.61;85.41;98811.76;4269194;81;20992;-84
2022/11/19 15:18:49;;;;;;;50.58;25.62;;;;;;;-0.65;85.83;98808.65;4265849;82;21027;-83
2022/11/19 15:25:15;;;;;;;49.40;24.63;;;;;;;-0.71;85.94;98805.30;4257204;81;21039;-84
2022/11/19 15:31:31;;;;;;;48.95;26.77;;;;;;;-0.78;86.59;98814.33;4251613;82;21013;-84
2022/11/19 15:38:05;;;;;;;57.95;28.30;;;;;;;-0.80;87.20;98811.72;4263568;81;20967;-84
2022/11/19 15:44:09;;;;;;;66.65;34.43;;;;;;;-0.84;87.70;98810.18;4250685;82;20984;-84
2022/11/19 15:50:22;;;;;;;67.42;35.73;;;;;;;-0.86;87.93;98808.91;4237973;81;21526;-83
2022/11/19 15:56:27;;;;;;;66.25;36.05;;;;;;;-0.98;87.85;98802.72;4270277;82;22065;-85
2022/11/19 16:02:41;;;;;;;72.55;35.85;;;;;;;-1.13;88.60;98778.91;4244110;82;21011;-84
2022/11/19 16:08:49;;;;;;;67.92;35.55;;;;;;;-1.06;88.73;98802.64;4248825;82;21053;-85
2022/11/19 16:21:15;;;;;;;69.47;36.45;;;;;;;-1.14;89.20;98799.36;4253666;82;21146;-84
2022/11/19 16:27:23;;;;;;;67.40;34.48;;;;;;;-1.19;89.23;98802.92;4229235;82;21123;-83
2022/11/19 16:33:28;;;;;;;67.85;34.43;;;;;;;-1.26;89.18;98806.59;4250234;82;21687;-84
2022/11/19 16:39:31;;;;;;;63.65;33.83;;;;;;;-1.32;89.37;98806.46;4240800;82;21038;-83
2022/11/19 16:45:34;;;;;;;65.75;35.28;;;;;;;-1.33;89.71;98811.56;4258193;82;21117;-83
2022/11/19 16:51:52;;;;;;;68.62;35.58;;;;;;;-1.40;89.26;98804.48;4262713;82;21044;-83
2022/11/19 16:58:00;;;;;;;75.05;39.30;;;;;;;-1.51;89.51;98811.70;4270618;82;21103;-83
2022/11/19 17:04:06;;;;;;;73.05;35.88;;;;;;;-1.60;89.50;98807.61;4255196;82;21017;-83
2022/11/19 17:10:16;;;;;;;65.62;34.65;;;;;;;-1.69;90.00;98804.01;4260217;82;21061;-83
2022/11/19 17:16:19;;;;;;;80.32;40.85;;;;;;;-1.71;90.68;98811.02;4240725;81;21071;-82
2022/11/19 17:22:35;;;;;;;78.13;37.87;;;;;;;-1.75;90.47;98797.16;4259402;82;21010;-82
2022/11/19 17:28:48;;;;;;;99.23;50.43;;;;;;;-1.83;90.96;98796.52;4261858;82;20985;-82
2022/11/19 17:34:53;;;;;;;83.05;39.95;;;;;;;-1.93;91.23;98796.73;4223262;82;21511;-82
2022/11/19 17:41:03;;;;;;;87.77;44.40;;;;;;;-1.92;91.67;98799.12;4181416;83;21071;-82
2022/11/19 17:47:17;;;;;;;108.47;53.33;;;;;;;-1.96;92.07;98815.55;4161400;83;21063;-82
2022/11/19 17:53:24;;;;;;;131.47;61.87;;;;;;;-1.98;91.87;98811.58;4154326;83;21096;-83
2022/11/19 17:59:27;;;;;;;106.37;50.63;;;;;;;-2.04;92.22;98808.75;4139903;83;21062;-83
2022/11/19 18:05:33;;;;;;;87.50;46.20;;;;;;;-2.10;92.13;98798.66;4143733;83;21680;-83
2022/11/19 18:11:37;;;;;;;68.85;34.48;;;;;;;-2.12;92.55;98814.27;4244587;82;21001;-82
2022/11/19 18:17:38;;;;;;;92.47;48.47;;;;;;;-2.17;92.50;98807.65;4243291;81;21663;-82
2022/11/19 18:23:41;;;;;;;89.93;47.60;;;;;;;-2.22;92.78;98787.63;4244628;82;21058;-82
2022/11/19 18:29:43;;;;;;;96.28;46.73;;;;;;;-2.29;92.65;98782.41;4256240;82;21090;-83
2022/11/19 18:35:44;;;;;;;85.63;42.97;;;;;;;-2.45;92.53;98774.39;4137359;82;10000020;-81
2022/11/19 18:41:45;;;;;;;133.33;69.27;;;;;;;-2.53;93.04;98792.48;4244379;82;21084;-81
2022/11/19 18:47:46;;;;;;;115.10;58.53;;;;;;;-2.70;92.93;98796.27;4226747;82;21974;-81
2022/11/19 18:53:48;;;;;;;108.47;54.07;;;;;;;-2.79;93.29;98789.99;4270449;81;21005;-82
2022/11/19 18:59:49;;;;;;;127.60;61.63;;;;;;;-2.83;93.39;98795.13;4261249;82;21571;-81
2022/11/19 19:05:50;;;;;;;149.33;68.03;;;;;;;-2.88;93.57;98809.16;4247329;82;21053;-82
2022/11/19 19:18:11;;;;;;;122.97;59.17;;;;;;;-2.99;94.20;98803.15;4265273;82;21899;-81
2022/11/19 19:24:13;;;;;;;103.90;51.67;;;;;;;-3.00;94.36;98792.73;4274202;82;22066;-81
2022/11/19 19:30:17;;;;;;;120.20;55.77;;;;;;;-3.04;94.28;98789.86;4259699;81;21031;-81
2022/11/19 19:36:19;;;;;;;94.83;47.97;;;;;;;-3.06;94.72;98786.67;4284754;81;21539;-81
2022/11/19 19:42:20;;;;;;;126.30;57.03;;;;;;;-3.16;94.19;98784.70;4243190;82;20965;-81
2022/11/19 19:48:23;;;;;;;159.37;72.20;;;;;;;-3.21;94.62;98794.95;4172212;83;21031;-81
2022/11/19 19:54:25;;;;;;;122.57;60.67;;;;;;;-3.36;94.17;98787.92;4267829;82;21134;-81
2022/11/19 20:00:26;;;;;;;107.23;56.03;;;;;;;-3.47;94.19;98797.17;4243024;82;21007;-81
2022/11/19 20:06:28;;;;;;;128.07;61.50;;;;;;;-3.59;94.47;98791.99;4234875;82;21043;-81
2022/11/19 20:13:26;;;;;;;128.33;63.33;;;;;;;-3.71;94.21;98796.98;4276378;81;21046;-81
2022/11/19 20:18:36;;;;;;;120.97;59.97;;;;;;;-3.81;94.55;98793.08;4277803;81;21080;-81
2022/11/19 20:24:38;;;;;;;105.70;51.67;;;;;;;-3.83;95.04;98789.36;4269586;81;21551;-81
2022/11/19 20:30:39;;;;;;;148.63;69.60;;;;;;;-3.89;94.86;98785.16;4179435;83;21008;-82
2022/11/19 20:36:41;;;;;;;143.97;66.23;;;;;;;-4.04;94.37;98794.67;4197418;83;20978;-81
2022/11/19 20:49:02;;;;;;;150.97;69.73;;;;;;;-4.27;94.49;98772.77;4277006;81;21050;-80
2022/11/19 20:55:04;;;;;;;156.60;71.60;;;;;;;-4.31;94.74;98782.44;4277286;81;21032;-81
2022/11/19 21:01:09;;;;;;;171.93;79.23;;;;;;;-4.38;94.70;98779.82;4261479;81;21570;-80
2022/11/19 21:07:10;;;;;;;187.57;81.70;;;;;;;-4.42;94.95;98784.15;4274526;81;21032;-81
2022/11/19 21:13:11;;;;;;;195.20;83.87;;;;;;;-4.46;94.98;98787.14;4268341;81;20992;-80
2022/11/19 21:19:13;;;;;;;177.23;74.87;;;;;;;-4.52;95.09;98780.23;4259655;81;21111;-81
2022/11/19 21:25:14;;;;;;;179.73;82.97;;;;;;;-4.60;94.77;98791.55;4263458;81;21524;-81
2022/11/19 21:31:18;;;;;;;194.43;87.30;;;;;;;-4.69;94.96;98787.34;4285907;81;20997;-79
2022/11/19 21:37:19;;;;;;;187.10;83.00;;;;;;;-4.71;95.70;98800.17;4278203;81;21694;-79
2022/11/19 21:43:22;;;;;;;182.53;79.23;;;;;;;-4.76;95.00;98791.42;4259177;81;21082;-80
2022/11/19 21:49:23;;;;;;;198.33;85.43;;;;;;;-4.93;94.88;98783.28;4281361;81;21075;-80
2022/11/19 21:55:25;;;;;;;170.47;75.90;;;;;;;-4.82;96.51;98808.02;4277626;81;21005;-80
2022/11/19 22:01:28;;;;;;;182.10;76.33;;;;;;;-4.84;95.72;98797.61;4244585;82;21085;-80
2022/11/19 22:07:30;;;;;;;190.53;85.27;;;;;;;-4.83;95.88;98794.42;4249379;81;21011;-79
2022/11/19 22:13:32;;;;;;;182.37;79.90;;;;;;;-4.81;96.05;98794.38;4271829;81;21008;-80
2022/11/19 22:19:33;;;;;;;175.77;74.90;;;;;;;-4.91;95.71;98799.83;4274159;81;21124;-79
2022/11/19 22:25:34;;;;;;;183.80;80.63;;;;;;;-4.91;96.04;98792.34;4188658;83;21030;-78
2022/11/19 22:31:36;;;;;;;181.47;77.20;;;;;;;-4.92;96.10;98792.09;4254035;81;21142;-80
2022/11/19 22:37:37;;;;;;;185.70;78.00;;;;;;;-5.05;95.53;98792.20;4266033;81;20963;-79
2022/11/19 22:43:40;;;;;;;193.60;87.13;;;;;;;-5.18;95.74;98794.68;4259829;81;21126;-79
2022/11/19 22:49:41;;;;;;;211.20;93.90;;;;;;;-5.23;96.09;98802.19;4257610;81;21610;-80
2022/11/19 22:55:42;;;;;;;179.33;80.13;;;;;;;-5.17;96.36;98781.61;4280539;81;21046;-79
2022/11/19 23:01:44;;;;;;;183.17;81.83;;;;;;;-5.26;95.51;98796.63;4283320;81;21097;-80
2022/11/19 23:07:45;;;;;;;176.83;82.07;;;;;;;-5.33;96.37;98801.47;4301071;81;21027;-80
2022/11/19 23:13:46;;;;;;;194.20;88.67;;;;;;;-5.28;96.49;98796.10;4135217;84;21090;-80
2022/11/19 23:19:50;;;;;;;193.93;89.60;;;;;;;-5.34;96.32;98790.55;4125377;84;21116;-80
2022/11/19 23:25:59;;;;;;;210.23;94.93;;;;;;;-5.28;96.74;98790.77;4157408;83;21038;-81
2022/11/19 23:32:01;;;;;;;189.00;88.00;;;;;;;-5.34;96.69;98791.31;4147276;83;21035;-79
2022/11/19 23:38:02;;;;;;;175.57;85.30;;;;;;;-5.23;97.04;98792.07;4279763;81;21686;-80
2022/11/19 23:44:04;;;;;;;194.77;87.97;;;;;;;-5.31;96.57;98777.42;4255023;81;21081;-80
2022/11/19 23:50:06;;;;;;;192.47;88.23;;;;;;;-5.27;97.19;98773.14;4242947;81;21063;-80
2022/11/19 23:56:11;;;;;;;172.10;77.37;;;;;;;-5.23;97.42;98777.39;4302863;81;21071;-79
